Snover, Michigan
Current Conditions -  °F | °C
As of 11:15 PM on Tuesday 25 Nov 2014 (Local Time) from KBAX Reporting Station
Overcast Overcast  
Wind Chill: -3°   Ceiling: 2700
Heat Index: -1°   Visibility: 10mi
Dew Point: -5°   Wind: 5mph
Humidity: 71%   Direction: 270°W
Pressure: 30.18"   Gusts: NA
Location:  43.46°N, 82.97°W
Report Text: KBAX 260415Z AUTO 27004KT 10SM OVC027 M01/M05 A3018 RMK AO2 T10061052
Loading
Personal Weather Stations






























Interactive Weather Map New forecast layout! Learn more

10-Day Weather Forecast

Advertisements
Track Severe Weather on mobile